sensor_id;sensor_type;location;lat;lon;timestamp;P1;durP1;ratioP1;P2;durP2;ratioP2
20391;SDS011;10355;53.688;10.078;2022-08-25T00:00:57;5.47;;;1.92;;
20391;SDS011;10355;53.688;10.078;2022-08-25T00:03:40;4.55;;;1.80;;
20391;SDS011;10355;53.688;10.078;2022-08-25T00:06:24;5.43;;;1.90;;
20391;SDS011;10355;53.688;10.078;2022-08-25T00:09:12;4.72;;;1.77;;
20391;SDS011;10355;53.688;10.078;2022-08-25T00:11:55;2.58;;;1.95;;
20391;SDS011;10355;53.688;10.078;2022-08-25T00:14:40;3.00;;;1.80;;
20391;SDS011;10355;53.688;10.078;2022-08-25T00:17:24;3.20;;;1.60;;
20391;SDS011;10355;53.688;10.078;2022-08-25T00:20:08;4.28;;;2.05;;
20391;SDS011;10355;53.688;10.078;2022-08-25T00:22:51;3.20;;;2.10;;
20391;SDS011;10355;53.688;10.078;2022-08-25T00:25:34;3.72;;;1.80;;
20391;SDS011;10355;53.688;10.078;2022-08-25T00:28:16;5.43;;;1.80;;
20391;SDS011;10355;53.688;10.078;2022-08-25T00:31:01;5.55;;;2.00;;
20391;SDS011;10355;53.688;10.078;2022-08-25T00:33:45;3.17;;;1.95;;
20391;SDS011;10355;53.688;10.078;2022-08-25T00:36:28;5.13;;;2.05;;
20391;SDS011;10355;53.688;10.078;2022-08-25T00:39:11;4.63;;;2.08;;
20391;SDS011;10355;53.688;10.078;2022-08-25T00:41:54;3.95;;;1.98;;
20391;SDS011;10355;53.688;10.078;2022-08-25T00:44:38;2.30;;;1.73;;
20391;SDS011;10355;53.688;10.078;2022-08-25T00:47:22;5.78;;;2.00;;
20391;SDS011;10355;53.688;10.078;2022-08-25T00:50:06;5.95;;;1.90;;
20391;SDS011;10355;53.688;10.078;2022-08-25T00:52:50;4.72;;;1.60;;
20391;SDS011;10355;53.688;10.078;2022-08-25T00:55:35;4.65;;;2.05;;
20391;SDS011;10355;53.688;10.078;2022-08-25T00:58:20;5.05;;;2.05;;
20391;SDS011;10355;53.688;10.078;2022-08-25T01:01:05;6.28;;;2.05;;
20391;SDS011;10355;53.688;10.078;2022-08-25T01:03:49;3.60;;;2.13;;
20391;SDS011;10355;53.688;10.078;2022-08-25T01:06:33;3.28;;;1.70;;
20391;SDS011;10355;53.688;10.078;2022-08-25T01:09:17;3.47;;;1.90;;
20391;SDS011;10355;53.688;10.078;2022-08-25T01:12:01;3.78;;;1.83;;
20391;SDS011;10355;53.688;10.078;2022-08-25T01:14:44;3.35;;;1.95;;
20391;SDS011;10355;53.688;10.078;2022-08-25T01:17:31;2.25;;;1.80;;
20391;SDS011;10355;53.688;10.078;2022-08-25T01:20:17;6.00;;;2.00;;
20391;SDS011;10355;53.688;10.078;2022-08-25T01:23:01;2.30;;;1.52;;
20391;SDS011;10355;53.688;10.078;2022-08-25T01:25:46;2.38;;;1.80;;
20391;SDS011;10355;53.688;10.078;2022-08-25T01:28:30;3.42;;;2.00;;
20391;SDS011;10355;53.688;10.078;2022-08-25T01:31:19;4.32;;;1.83;;
20391;SDS011;10355;53.688;10.078;2022-08-25T01:34:05;3.17;;;1.70;;
20391;SDS011;10355;53.688;10.078;2022-08-25T01:36:48;5.85;;;2.10;;
20391;SDS011;10355;53.688;10.078;2022-08-25T01:39:33;2.20;;;1.65;;
20391;SDS011;10355;53.688;10.078;2022-08-25T01:42:18;4.10;;;1.98;;
20391;SDS011;10355;53.688;10.078;2022-08-25T01:45:01;2.45;;;1.92;;
20391;SDS011;10355;53.688;10.078;2022-08-25T01:47:44;2.45;;;1.60;;
20391;SDS011;10355;53.688;10.078;2022-08-25T01:50:28;5.03;;;1.80;;
20391;SDS011;10355;53.688;10.078;2022-08-25T01:53:12;3.88;;;1.75;;
20391;SDS011;10355;53.688;10.078;2022-08-25T01:56:00;5.78;;;1.80;;
20391;SDS011;10355;53.688;10.078;2022-08-25T01:59:05;3.78;;;1.73;;
20391;SDS011;10355;53.688;10.078;2022-08-25T02:01:48;6.43;;;2.10;;
20391;SDS011;10355;53.688;10.078;2022-08-25T02:04:31;4.88;;;2.00;;
20391;SDS011;10355;53.688;10.078;2022-08-25T02:07:14;2.20;;;1.50;;
20391;SDS011;10355;53.688;10.078;2022-08-25T02:09:57;3.55;;;1.98;;
20391;SDS011;10355;53.688;10.078;2022-08-25T02:12:45;4.05;;;1.60;;
20391;SDS011;10355;53.688;10.078;2022-08-25T02:15:28;3.35;;;1.80;;
20391;SDS011;10355;53.688;10.078;2022-08-25T02:18:10;1.88;;;1.60;;
20391;SDS011;10355;53.688;10.078;2022-08-25T02:20:53;2.17;;;1.60;;
20391;SDS011;10355;53.688;10.078;2022-08-25T02:23:36;3.97;;;1.88;;
20391;SDS011;10355;53.688;10.078;2022-08-25T02:26:22;4.57;;;2.08;;
20391;SDS011;10355;53.688;10.078;2022-08-25T02:29:06;5.45;;;1.67;;
20391;SDS011;10355;53.688;10.078;2022-08-25T02:31:49;5.93;;;2.00;;
20391;SDS011;10355;53.688;10.078;2022-08-25T02:34:32;3.65;;;1.83;;
20391;SDS011;10355;53.688;10.078;2022-08-25T02:37:15;6.18;;;2.05;;
20391;SDS011;10355;53.688;10.078;2022-08-25T02:39:58;3.40;;;2.08;;
20391;SDS011;10355;53.688;10.078;2022-08-25T02:42:41;4.38;;;2.17;;
20391;SDS011;10355;53.688;10.078;2022-08-25T02:45:26;2.70;;;1.98;;
20391;SDS011;10355;53.688;10.078;2022-08-25T02:48:09;4.03;;;1.95;;
20391;SDS011;10355;53.688;10.078;2022-08-25T02:50:52;4.45;;;2.10;;
20391;SDS011;10355;53.688;10.078;2022-08-25T02:53:36;4.03;;;1.95;;
20391;SDS011;10355;53.688;10.078;2022-08-25T02:56:20;3.70;;;1.75;;
20391;SDS011;10355;53.688;10.078;2022-08-25T02:59:03;4.53;;;2.20;;
20391;SDS011;10355;53.688;10.078;2022-08-25T03:01:47;5.22;;;2.28;;
20391;SDS011;10355;53.688;10.078;2022-08-25T03:04:30;4.03;;;1.92;;
20391;SDS011;10355;53.688;10.078;2022-08-25T03:07:13;4.93;;;2.00;;
20391;SDS011;10355;53.688;10.078;2022-08-25T03:09:58;2.92;;;1.70;;
20391;SDS011;10355;53.688;10.078;2022-08-25T03:12:41;2.90;;;2.03;;
20391;SDS011;10355;53.688;10.078;2022-08-25T03:15:25;3.90;;;2.08;;
20391;SDS011;10355;53.688;10.078;2022-08-25T03:18:12;2.88;;;2.10;;
20391;SDS011;10355;53.688;10.078;2022-08-25T03:20:55;3.88;;;2.15;;
20391;SDS011;10355;53.688;10.078;2022-08-25T03:23:39;4.05;;;1.95;;
20391;SDS011;10355;53.688;10.078;2022-08-25T03:26:22;4.20;;;2.20;;
20391;SDS011;10355;53.688;10.078;2022-08-25T03:29:23;2.70;;;2.30;;
20391;SDS011;10355;53.688;10.078;2022-08-25T03:32:06;3.63;;;2.13;;
20391;SDS011;10355;53.688;10.078;2022-08-25T03:34:51;3.95;;;1.90;;
20391;SDS011;10355;53.688;10.078;2022-08-25T03:37:34;3.28;;;1.98;;
20391;SDS011;10355;53.688;10.078;2022-08-25T03:40:17;4.40;;;1.83;;
20391;SDS011;10355;53.688;10.078;2022-08-25T03:43:00;2.58;;;1.90;;
20391;SDS011;10355;53.688;10.078;2022-08-25T03:45:44;2.80;;;1.77;;
20391;SDS011;10355;53.688;10.078;2022-08-25T03:48:28;3.55;;;1.83;;
20391;SDS011;10355;53.688;10.078;2022-08-25T03:51:22;3.08;;;1.92;;
20391;SDS011;10355;53.688;10.078;2022-08-25T03:54:06;3.92;;;1.58;;
20391;SDS011;10355;53.688;10.078;2022-08-25T03:56:50;3.42;;;2.13;;
20391;SDS011;10355;53.688;10.078;2022-08-25T03:59:33;4.30;;;1.73;;
20391;SDS011;10355;53.688;10.078;2022-08-25T04:02:18;3.67;;;2.10;;
20391;SDS011;10355;53.688;10.078;2022-08-25T04:05:02;3.67;;;2.38;;
20391;SDS011;10355;53.688;10.078;2022-08-25T04:07:46;4.05;;;2.20;;
20391;SDS011;10355;53.688;10.078;2022-08-25T04:10:29;2.92;;;1.95;;
20391;SDS011;10355;53.688;10.078;2022-08-25T04:13:12;5.25;;;2.10;;
20391;SDS011;10355;53.688;10.078;2022-08-25T04:15:55;5.93;;;2.40;;
20391;SDS011;10355;53.688;10.078;2022-08-25T04:18:38;3.63;;;2.22;;
20391;SDS011;10355;53.688;10.078;2022-08-25T04:21:24;4.00;;;2.33;;
20391;SDS011;10355;53.688;10.078;2022-08-25T04:24:09;3.53;;;1.88;;
20391;SDS011;10355;53.688;10.078;2022-08-25T04:26:52;4.32;;;2.00;;
20391;SDS011;10355;53.688;10.078;2022-08-25T04:29:35;3.55;;;2.20;;
20391;SDS011;10355;53.688;10.078;2022-08-25T04:32:18;3.97;;;2.13;;
20391;SDS011;10355;53.688;10.078;2022-08-25T04:35:01;3.53;;;2.00;;
20391;SDS011;10355;53.688;10.078;2022-08-25T04:37:44;3.28;;;2.30;;
20391;SDS011;10355;53.688;10.078;2022-08-25T04:40:30;2.60;;;2.03;;
20391;SDS011;10355;53.688;10.078;2022-08-25T04:43:13;3.30;;;2.40;;
20391;SDS011;10355;53.688;10.078;2022-08-25T04:45:56;2.75;;;2.03;;
20391;SDS011;10355;53.688;10.078;2022-08-25T04:48:39;3.13;;;2.13;;
20391;SDS011;10355;53.688;10.078;2022-08-25T04:51:24;3.30;;;2.47;;
20391;SDS011;10355;53.688;10.078;2022-08-25T04:54:09;3.45;;;2.75;;
20391;SDS011;10355;53.688;10.078;2022-08-25T04:56:54;5.63;;;2.80;;
20391;SDS011;10355;53.688;10.078;2022-08-25T04:59:39;5.05;;;3.00;;
20391;SDS011;10355;53.688;10.078;2022-08-25T05:02:22;5.38;;;3.10;;
20391;SDS011;10355;53.688;10.078;2022-08-25T05:05:06;5.72;;;3.25;;
20391;SDS011;10355;53.688;10.078;2022-08-25T05:07:49;5.60;;;3.00;;
20391;SDS011;10355;53.688;10.078;2022-08-25T05:10:33;5.60;;;3.70;;
20391;SDS011;10355;53.688;10.078;2022-08-25T05:13:21;6.22;;;3.80;;
20391;SDS011;10355;53.688;10.078;2022-08-25T05:16:07;5.85;;;3.50;;
20391;SDS011;10355;53.688;10.078;2022-08-25T05:18:57;6.97;;;3.63;;
20391;SDS011;10355;53.688;10.078;2022-08-25T05:21:40;5.50;;;3.47;;
20391;SDS011;10355;53.688;10.078;2022-08-25T05:24:23;6.38;;;3.60;;
20391;SDS011;10355;53.688;10.078;2022-08-25T05:27:06;5.93;;;4.13;;
20391;SDS011;10355;53.688;10.078;2022-08-25T05:29:50;6.88;;;4.22;;
20391;SDS011;10355;53.688;10.078;2022-08-25T05:32:33;6.13;;;4.25;;
20391;SDS011;10355;53.688;10.078;2022-08-25T05:35:16;7.22;;;4.00;;
20391;SDS011;10355;53.688;10.078;2022-08-25T05:38:00;6.65;;;4.10;;
20391;SDS011;10355;53.688;10.078;2022-08-25T05:40:44;7.80;;;4.25;;
20391;SDS011;10355;53.688;10.078;2022-08-25T05:43:27;8.30;;;4.30;;
20391;SDS011;10355;53.688;10.078;2022-08-25T05:49:13;6.72;;;4.53;;
20391;SDS011;10355;53.688;10.078;2022-08-25T05:51:56;7.70;;;4.60;;
20391;SDS011;10355;53.688;10.078;2022-08-25T05:54:40;6.82;;;4.95;;
20391;SDS011;10355;53.688;10.078;2022-08-25T05:57:23;8.07;;;5.40;;
20391;SDS011;10355;53.688;10.078;2022-08-25T06:00:07;8.77;;;5.32;;
20391;SDS011;10355;53.688;10.078;2022-08-25T06:02:53;8.48;;;5.35;;
20391;SDS011;10355;53.688;10.078;2022-08-25T06:05:37;11.07;;;6.20;;
20391;SDS011;10355;53.688;10.078;2022-08-25T06:08:20;10.50;;;6.03;;
20391;SDS011;10355;53.688;10.078;2022-08-25T06:11:05;9.55;;;5.95;;
20391;SDS011;10355;53.688;10.078;2022-08-25T06:13:48;9.82;;;5.93;;
20391;SDS011;10355;53.688;10.078;2022-08-25T06:16:31;11.82;;;6.55;;
20391;SDS011;10355;53.688;10.078;2022-08-25T06:19:14;9.73;;;6.63;;
20391;SDS011;10355;53.688;10.078;2022-08-25T06:21:58;10.32;;;6.75;;
20391;SDS011;10355;53.688;10.078;2022-08-25T06:24:41;10.80;;;6.93;;
20391;SDS011;10355;53.688;10.078;2022-08-25T06:27:24;11.75;;;6.20;;
20391;SDS011;10355;53.688;10.078;2022-08-25T06:30:09;10.02;;;5.93;;
20391;SDS011;10355;53.688;10.078;2022-08-25T06:32:56;8.52;;;5.72;;
20391;SDS011;10355;53.688;10.078;2022-08-25T06:35:40;9.52;;;6.10;;
20391;SDS011;10355;53.688;10.078;2022-08-25T06:38:24;8.90;;;6.10;;
20391;SDS011;10355;53.688;10.078;2022-08-25T06:41:08;9.32;;;5.93;;
20391;SDS011;10355;53.688;10.078;2022-08-25T06:43:59;9.30;;;6.07;;
20391;SDS011;10355;53.688;10.078;2022-08-25T06:46:46;9.45;;;6.13;;
20391;SDS011;10355;53.688;10.078;2022-08-25T06:49:29;9.85;;;6.43;;
20391;SDS011;10355;53.688;10.078;2022-08-25T06:52:16;9.63;;;5.82;;
20391;SDS011;10355;53.688;10.078;2022-08-25T06:55:01;9.80;;;6.32;;
20391;SDS011;10355;53.688;10.078;2022-08-25T06:57:44;11.43;;;6.45;;
20391;SDS011;10355;53.688;10.078;2022-08-25T07:00:27;9.13;;;6.20;;
20391;SDS011;10355;53.688;10.078;2022-08-25T07:03:11;8.98;;;6.20;;
20391;SDS011;10355;53.688;10.078;2022-08-25T07:05:55;11.60;;;6.68;;
20391;SDS011;10355;53.688;10.078;2022-08-25T07:08:38;9.65;;;6.28;;
20391;SDS011;10355;53.688;10.078;2022-08-25T07:11:22;10.88;;;6.20;;
20391;SDS011;10355;53.688;10.078;2022-08-25T07:14:06;8.90;;;5.45;;
20391;SDS011;10355;53.688;10.078;2022-08-25T07:16:49;9.48;;;6.20;;
20391;SDS011;10355;53.688;10.078;2022-08-25T07:19:32;11.82;;;5.82;;
20391;SDS011;10355;53.688;10.078;2022-08-25T07:22:15;10.55;;;6.13;;
20391;SDS011;10355;53.688;10.078;2022-08-25T07:24:58;8.93;;;5.70;;
20391;SDS011;10355;53.688;10.078;2022-08-25T07:27:43;10.73;;;5.90;;
20391;SDS011;10355;53.688;10.078;2022-08-25T07:30:26;8.85;;;5.90;;
20391;SDS011;10355;53.688;10.078;2022-08-25T07:33:09;7.60;;;5.57;;
20391;SDS011;10355;53.688;10.078;2022-08-25T07:35:54;7.10;;;5.30;;
20391;SDS011;10355;53.688;10.078;2022-08-25T07:38:37;8.63;;;5.70;;
20391;SDS011;10355;53.688;10.078;2022-08-25T07:41:20;8.25;;;5.32;;
20391;SDS011;10355;53.688;10.078;2022-08-25T07:44:05;10.02;;;5.88;;
20391;SDS011;10355;53.688;10.078;2022-08-25T07:46:48;11.20;;;5.40;;
20391;SDS011;10355;53.688;10.078;2022-08-25T07:49:34;7.85;;;4.93;;
20391;SDS011;10355;53.688;10.078;2022-08-25T07:52:20;9.25;;;5.32;;
20391;SDS011;10355;53.688;10.078;2022-08-25T07:55:04;7.38;;;5.00;;
20391;SDS011;10355;53.688;10.078;2022-08-25T07:57:51;8.73;;;5.85;;
20391;SDS011;10355;53.688;10.078;2022-08-25T08:00:38;7.82;;;5.03;;
20391;SDS011;10355;53.688;10.078;2022-08-25T08:03:22;9.05;;;5.78;;
20391;SDS011;10355;53.688;10.078;2022-08-25T08:06:25;12.00;;;5.68;;
20391;SDS011;10355;53.688;10.078;2022-08-25T08:09:08;9.07;;;5.70;;
20391;SDS011;10355;53.688;10.078;2022-08-25T08:11:51;9.25;;;6.10;;
20391;SDS011;10355;53.688;10.078;2022-08-25T08:14:34;8.82;;;5.35;;
20391;SDS011;10355;53.688;10.078;2022-08-25T08:17:26;7.30;;;5.10;;
20391;SDS011;10355;53.688;10.078;2022-08-25T08:20:10;9.77;;;5.72;;
20391;SDS011;10355;53.688;10.078;2022-08-25T08:22:54;10.57;;;5.47;;
20391;SDS011;10355;53.688;10.078;2022-08-25T08:25:37;8.77;;;5.25;;
20391;SDS011;10355;53.688;10.078;2022-08-25T08:28:20;9.80;;;5.60;;
20391;SDS011;10355;53.688;10.078;2022-08-25T08:31:05;8.43;;;5.72;;
20391;SDS011;10355;53.688;10.078;2022-08-25T08:34:08;10.00;;;5.85;;
20391;SDS011;10355;53.688;10.078;2022-08-25T08:36:52;9.02;;;5.35;;
20391;SDS011;10355;53.688;10.078;2022-08-25T08:39:38;9.43;;;5.97;;
20391;SDS011;10355;53.688;10.078;2022-08-25T08:42:41;8.25;;;6.15;;
20391;SDS011;10355;53.688;10.078;2022-08-25T08:45:29;9.68;;;6.32;;
20391;SDS011;10355;53.688;10.078;2022-08-25T08:48:37;11.98;;;7.30;;
20391;SDS011;10355;53.688;10.078;2022-08-25T08:51:34;10.90;;;7.55;;
20391;SDS011;10355;53.688;10.078;2022-08-25T08:54:22;13.68;;;8.65;;
20391;SDS011;10355;53.688;10.078;2022-08-25T08:57:08;13.40;;;9.25;;
20391;SDS011;10355;53.688;10.078;2022-08-25T08:59:53;15.13;;;8.73;;
20391;SDS011;10355;53.688;10.078;2022-08-25T09:02:39;12.07;;;7.65;;
20391;SDS011;10355;53.688;10.078;2022-08-25T09:05:34;13.50;;;7.93;;
20391;SDS011;10355;53.688;10.078;2022-08-25T09:08:26;10.43;;;7.35;;
20391;SDS011;10355;53.688;10.078;2022-08-25T09:11:12;10.93;;;6.13;;
20391;SDS011;10355;53.688;10.078;2022-08-25T09:14:20;7.15;;;5.70;;
20391;SDS011;10355;53.688;10.078;2022-08-25T09:17:13;10.30;;;5.57;;
20391;SDS011;10355;53.688;10.078;2022-08-25T09:20:07;9.48;;;4.72;;
20391;SDS011;10355;53.688;10.078;2022-08-25T09:23:02;13.85;;;4.68;;
20391;SDS011;10355;53.688;10.078;2022-08-25T09:25:53;8.77;;;4.30;;
20391;SDS011;10355;53.688;10.078;2022-08-25T09:28:41;7.03;;;3.60;;
20391;SDS011;10355;53.688;10.078;2022-08-25T09:31:26;8.60;;;4.10;;
20391;SDS011;10355;53.688;10.078;2022-08-25T09:34:12;10.07;;;4.05;;
20391;SDS011;10355;53.688;10.078;2022-08-25T09:36:58;7.35;;;3.97;;
20391;SDS011;10355;53.688;10.078;2022-08-25T09:39:42;6.85;;;3.45;;
20391;SDS011;10355;53.688;10.078;2022-08-25T09:45:35;4.18;;;2.20;;
20391;SDS011;10355;53.688;10.078;2022-08-25T09:48:24;4.57;;;2.15;;
20391;SDS011;10355;53.688;10.078;2022-08-25T09:51:11;3.28;;;1.73;;
20391;SDS011;10355;53.688;10.078;2022-08-25T09:54:09;2.45;;;1.25;;
20391;SDS011;10355;53.688;10.078;2022-08-25T09:56:58;1.27;;;0.50;;
20391;SDS011;10355;53.688;10.078;2022-08-25T09:59:42;0.60;;;0.60;;
20391;SDS011;10355;53.688;10.078;2022-08-25T10:02:41;1.10;;;0.70;;
20391;SDS011;10355;53.688;10.078;2022-08-25T10:05:25;1.52;;;0.80;;
20391;SDS011;10355;53.688;10.078;2022-08-25T10:08:10;0.73;;;0.60;;
20391;SDS011;10355;53.688;10.078;2022-08-25T10:10:57;0.47;;;0.40;;
20391;SDS011;10355;53.688;10.078;2022-08-25T10:13:41;0.65;;;0.47;;
20391;SDS011;10355;53.688;10.078;2022-08-25T10:16:26;0.93;;;0.40;;
20391;SDS011;10355;53.688;10.078;2022-08-25T10:19:25;0.90;;;0.63;;
20391;SDS011;10355;53.688;10.078;2022-08-25T10:22:09;1.50;;;0.90;;
20391;SDS011;10355;53.688;10.078;2022-08-25T10:24:52;0.75;;;0.60;;
20391;SDS011;10355;53.688;10.078;2022-08-25T10:27:37;0.40;;;0.40;;
20391;SDS011;10355;53.688;10.078;2022-08-25T10:30:26;0.28;;;0.25;;
20391;SDS011;10355;53.688;10.078;2022-08-25T10:33:12;0.85;;;0.38;;
20391;SDS011;10355;53.688;10.078;2022-08-25T10:36:00;0.75;;;0.38;;
20391;SDS011;10355;53.688;10.078;2022-08-25T10:38:47;0.73;;;0.30;;
20391;SDS011;10355;53.688;10.078;2022-08-25T10:41:40;0.73;;;0.55;;
20391;SDS011;10355;53.688;10.078;2022-08-25T10:44:28;0.40;;;0.30;;
20391;SDS011;10355;53.688;10.078;2022-08-25T10:47:33;1.55;;;0.75;;
20391;SDS011;10355;53.688;10.078;2022-08-25T10:50:26;0.43;;;0.43;;
20391;SDS011;10355;53.688;10.078;2022-08-25T10:53:19;0.35;;;0.35;;
20391;SDS011;10355;53.688;10.078;2022-08-25T10:56:06;0.30;;;0.30;;
20391;SDS011;10355;53.688;10.078;2022-08-25T11:01:53;0.15;;;0.15;;
20391;SDS011;10355;53.688;10.078;2022-08-25T11:04:40;0.95;;;0.43;;
20391;SDS011;10355;53.688;10.078;2022-08-25T11:07:28;1.08;;;0.70;;
20391;SDS011;10355;53.688;10.078;2022-08-25T11:10:17;1.42;;;0.90;;
20391;SDS011;10355;53.688;10.078;2022-08-25T11:13:03;0.88;;;0.60;;
20391;SDS011;10355;53.688;10.078;2022-08-25T11:15:52;0.40;;;0.30;;
20391;SDS011;10355;53.688;10.078;2022-08-25T11:19:23;0.43;;;0.30;;
20391;SDS011;10355;53.688;10.078;2022-08-25T11:22:10;0.20;;;0.20;;
20391;SDS011;10355;53.688;10.078;2022-08-25T11:24:59;0.20;;;0.20;;
20391;SDS011;10355;53.688;10.078;2022-08-25T11:27:46;0.20;;;0.20;;
20391;SDS011;10355;53.688;10.078;2022-08-25T11:30:32;0.10;;;0.10;;
20391;SDS011;10355;53.688;10.078;2022-08-25T11:33:16;0.20;;;0.20;;
20391;SDS011;10355;53.688;10.078;2022-08-25T11:36:04;0.85;;;0.20;;
20391;SDS011;10355;53.688;10.078;2022-08-25T11:38:54;0.77;;;0.57;;
20391;SDS011;10355;53.688;10.078;2022-08-25T11:41:43;0.73;;;0.60;;
20391;SDS011;10355;53.688;10.078;2022-08-25T11:44:37;0.22;;;0.22;;
20391;SDS011;10355;53.688;10.078;2022-08-25T11:47:53;0.40;;;0.40;;
20391;SDS011;10355;53.688;10.078;2022-08-25T11:50:53;0.50;;;0.40;;
20391;SDS011;10355;53.688;10.078;2022-08-25T11:53:37;0.45;;;0.40;;
20391;SDS011;10355;53.688;10.078;2022-08-25T11:56:30;0.28;;;0.20;;
20391;SDS011;10355;53.688;10.078;2022-08-25T11:59:19;0.28;;;0.20;;
20391;SDS011;10355;53.688;10.078;2022-08-25T12:02:45;0.30;;;0.20;;
20391;SDS011;10355;53.688;10.078;2022-08-25T12:11:42;0.10;;;0.10;;
20391;SDS011;10355;53.688;10.078;2022-08-25T12:17:38;0.30;;;0.20;;
20391;SDS011;10355;53.688;10.078;2022-08-25T12:20:23;0.10;;;0.10;;
20391;SDS011;10355;53.688;10.078;2022-08-25T12:23:27;0.17;;;0.17;;
20391;SDS011;10355;53.688;10.078;2022-08-25T12:26:14;0.10;;;0.10;;
20391;SDS011;10355;53.688;10.078;2022-08-25T12:29:18;0.10;;;0.10;;
20391;SDS011;10355;53.688;10.078;2022-08-25T12:32:12;0.30;;;0.20;;
20391;SDS011;10355;53.688;10.078;2022-08-25T12:35:09;0.20;;;0.20;;
20391;SDS011;10355;53.688;10.078;2022-08-25T12:37:59;0.10;;;0.10;;
20391;SDS011;10355;53.688;10.078;2022-08-25T12:40:52;0.10;;;0.10;;
20391;SDS011;10355;53.688;10.078;2022-08-25T12:43:37;0.15;;;0.15;;
20391;SDS011;10355;53.688;10.078;2022-08-25T12:46:38;0.30;;;0.20;;
20391;SDS011;10355;53.688;10.078;2022-08-25T12:49:30;0.20;;;0.20;;
20391;SDS011;10355;53.688;10.078;2022-08-25T12:52:15;0.20;;;0.20;;
20391;SDS011;10355;53.688;10.078;2022-08-25T12:55:02;0.10;;;0.10;;
20391;SDS011;10355;53.688;10.078;2022-08-25T12:57:48;0.20;;;0.20;;
20391;SDS011;10355;53.688;10.078;2022-08-25T13:00:35;0.15;;;0.15;;
20391;SDS011;10355;53.688;10.078;2022-08-25T13:03:28;0.10;;;0.10;;
20391;SDS011;10355;53.688;10.078;2022-08-25T13:12:28;0.10;;;0.10;;
20391;SDS011;10355;53.688;10.078;2022-08-25T13:15:13;0.13;;;0.13;;
20391;SDS011;10355;53.688;10.078;2022-08-25T13:18:11;0.10;;;0.10;;
20391;SDS011;10355;53.688;10.078;2022-08-25T13:20:59;0.10;;;0.10;;
20391;SDS011;10355;53.688;10.078;2022-08-25T13:23:44;0.10;;;0.10;;
20391;SDS011;10355;53.688;10.078;2022-08-25T13:26:28;0.15;;;0.15;;
20391;SDS011;10355;53.688;10.078;2022-08-25T13:29:15;0.10;;;0.10;;
20391;SDS011;10355;53.688;10.078;2022-08-25T13:32:01;0.10;;;0.10;;
20391;SDS011;10355;53.688;10.078;2022-08-25T13:34:50;0.10;;;0.10;;
20391;SDS011;10355;53.688;10.078;2022-08-25T13:37:35;0.20;;;0.20;;
20391;SDS011;10355;53.688;10.078;2022-08-25T13:40:22;0.20;;;0.10;;
20391;SDS011;10355;53.688;10.078;2022-08-25T13:43:08;0.10;;;0.10;;
20391;SDS011;10355;53.688;10.078;2022-08-25T13:45:53;0.10;;;0.10;;
20391;SDS011;10355;53.688;10.078;2022-08-25T13:48:38;0.20;;;0.20;;
20391;SDS011;10355;53.688;10.078;2022-08-25T13:51:36;0.10;;;0.10;;
20391;SDS011;10355;53.688;10.078;2022-08-25T13:54:23;0.10;;;0.10;;
20391;SDS011;10355;53.688;10.078;2022-08-25T13:57:11;0.10;;;0.10;;
20391;SDS011;10355;53.688;10.078;2022-08-25T14:00:02;0.10;;;0.10;;
20391;SDS011;10355;53.688;10.078;2022-08-25T14:02:48;0.10;;;0.10;;
20391;SDS011;10355;53.688;10.078;2022-08-25T14:05:33;0.10;;;0.10;;
20391;SDS011;10355;53.688;10.078;2022-08-25T14:08:28;0.10;;;0.10;;
20391;SDS011;10355;53.688;10.078;2022-08-25T14:11:14;0.17;;;0.17;;
20391;SDS011;10355;53.688;10.078;2022-08-25T14:14:30;0.10;;;0.10;;
20391;SDS011;10355;53.688;10.078;2022-08-25T14:17:14;0.20;;;0.20;;
20391;SDS011;10355;53.688;10.078;2022-08-25T14:20:22;0.10;;;0.10;;
20391;SDS011;10355;53.688;10.078;2022-08-25T14:23:10;0.10;;;0.10;;
20391;SDS011;10355;53.688;10.078;2022-08-25T14:25:59;0.10;;;0.10;;
20391;SDS011;10355;53.688;10.078;2022-08-25T14:28:42;0.10;;;0.10;;
20391;SDS011;10355;53.688;10.078;2022-08-25T14:31:40;0.10;;;0.10;;
20391;SDS011;10355;53.688;10.078;2022-08-25T14:34:25;0.10;;;0.10;;
20391;SDS011;10355;53.688;10.078;2022-08-25T14:37:11;0.10;;;0.10;;
20391;SDS011;10355;53.688;10.078;2022-08-25T14:39:56;0.20;;;0.15;;
20391;SDS011;10355;53.688;10.078;2022-08-25T14:42:39;0.10;;;0.10;;
20391;SDS011;10355;53.688;10.078;2022-08-25T14:45:22;0.20;;;0.20;;
20391;SDS011;10355;53.688;10.078;2022-08-25T14:48:07;0.20;;;0.20;;
20391;SDS011;10355;53.688;10.078;2022-08-25T14:50:51;0.10;;;0.10;;
20391;SDS011;10355;53.688;10.078;2022-08-25T14:53:36;0.20;;;0.10;;
20391;SDS011;10355;53.688;10.078;2022-08-25T14:56:35;0.10;;;0.10;;
20391;SDS011;10355;53.688;10.078;2022-08-25T14:59:23;0.10;;;0.10;;
20391;SDS011;10355;53.688;10.078;2022-08-25T15:02:08;0.10;;;0.10;;
20391;SDS011;10355;53.688;10.078;2022-08-25T15:04:54;0.10;;;0.10;;
20391;SDS011;10355;53.688;10.078;2022-08-25T15:07:38;0.10;;;0.10;;
20391;SDS011;10355;53.688;10.078;2022-08-25T15:10:40;0.10;;;0.10;;
20391;SDS011;10355;53.688;10.078;2022-08-25T15:13:57;0.10;;;0.10;;
20391;SDS011;10355;53.688;10.078;2022-08-25T15:16:43;0.10;;;0.10;;
20391;SDS011;10355;53.688;10.078;2022-08-25T15:19:27;0.20;;;0.17;;
20391;SDS011;10355;53.688;10.078;2022-08-25T15:22:10;0.15;;;0.15;;
20391;SDS011;10355;53.688;10.078;2022-08-25T15:24:53;0.40;;;0.40;;
20391;SDS011;10355;53.688;10.078;2022-08-25T15:27:37;0.20;;;0.20;;
20391;SDS011;10355;53.688;10.078;2022-08-25T15:30:21;0.10;;;0.10;;
20391;SDS011;10355;53.688;10.078;2022-08-25T15:33:11;0.17;;;0.17;;
20391;SDS011;10355;53.688;10.078;2022-08-25T15:35:54;0.10;;;0.10;;
20391;SDS011;10355;53.688;10.078;2022-08-25T15:38:39;0.10;;;0.10;;
20391;SDS011;10355;53.688;10.078;2022-08-25T15:41:22;0.10;;;0.10;;
20391;SDS011;10355;53.688;10.078;2022-08-25T15:44:09;0.10;;;0.10;;
20391;SDS011;10355;53.688;10.078;2022-08-25T15:46:53;0.10;;;0.10;;
20391;SDS011;10355;53.688;10.078;2022-08-25T15:49:36;0.10;;;0.10;;
20391;SDS011;10355;53.688;10.078;2022-08-25T15:52:20;0.10;;;0.10;;
20391;SDS011;10355;53.688;10.078;2022-08-25T15:55:09;0.10;;;0.10;;
20391;SDS011;10355;53.688;10.078;2022-08-25T15:57:52;0.10;;;0.10;;
20391;SDS011;10355;53.688;10.078;2022-08-25T16:00:36;0.10;;;0.10;;
20391;SDS011;10355;53.688;10.078;2022-08-25T16:03:19;0.10;;;0.10;;
20391;SDS011;10355;53.688;10.078;2022-08-25T16:06:07;0.10;;;0.10;;
20391;SDS011;10355;53.688;10.078;2022-08-25T16:08:52;0.13;;;0.13;;
20391;SDS011;10355;53.688;10.078;2022-08-25T16:11:36;0.10;;;0.10;;
20391;SDS011;10355;53.688;10.078;2022-08-25T16:14:19;0.10;;;0.10;;
20391;SDS011;10355;53.688;10.078;2022-08-25T16:17:03;0.10;;;0.10;;
20391;SDS011;10355;53.688;10.078;2022-08-25T16:19:47;0.10;;;0.10;;
20391;SDS011;10355;53.688;10.078;2022-08-25T16:22:30;0.10;;;0.10;;
20391;SDS011;10355;53.688;10.078;2022-08-25T16:25:14;0.10;;;0.10;;
20391;SDS011;10355;53.688;10.078;2022-08-25T16:27:59;0.10;;;0.10;;
20391;SDS011;10355;53.688;10.078;2022-08-25T16:30:43;0.10;;;0.10;;
20391;SDS011;10355;53.688;10.078;2022-08-25T16:33:34;0.10;;;0.10;;
20391;SDS011;10355;53.688;10.078;2022-08-25T16:36:18;0.10;;;0.10;;
20391;SDS011;10355;53.688;10.078;2022-08-25T16:39:02;0.10;;;0.10;;
20391;SDS011;10355;53.688;10.078;2022-08-25T16:41:50;0.10;;;0.10;;
20391;SDS011;10355;53.688;10.078;2022-08-25T16:44:33;0.10;;;0.10;;
20391;SDS011;10355;53.688;10.078;2022-08-25T16:47:18;4.50;;;2.35;;
20391;SDS011;10355;53.688;10.078;2022-08-25T16:50:09;6.78;;;2.53;;
20391;SDS011;10355;53.688;10.078;2022-08-25T16:52:52;6.05;;;2.45;;